Time;durP1;ratioP1;P1;durP2;ratioP2;P2;SDS_P1;SDS_P2;PMS_P1;PMS_P2;Temp;Humidity;BMP_temperature;BMP_pressure;BME280_temperature;BME280_humidity;BME280_pressure;Samples;Min_cycle;Max_cycle;Signal;HPM_P1;HPM_P2
2021/05/19 00:00:20;;;;;;;20.15;7.45;;;;;;;8.88;100.00;101201.69;6247457;28;20091;-79
2021/05/19 00:03:21;;;;;;;10.13;7.50;;;;;;;8.86;100.00;101214.00;6247527;28;20049;-78
2021/05/19 00:06:22;;;;;;;10.65;7.68;;;;;;;8.81;100.00;101201.06;6247651;28;20050;-77
2021/05/19 00:09:22;;;;;;;10.50;7.10;;;;;;;8.76;100.00;101205.59;6247534;28;20133;-82
2021/05/19 00:12:23;;;;;;;9.88;7.45;;;;;;;8.81;100.00;101200.19;6247265;28;20057;-80
2021/05/19 00:15:25;;;;;;;12.38;8.30;;;;;;;8.86;100.00;101200.91;6247127;28;20060;-79
2021/05/19 00:18:26;;;;;;;12.57;7.75;;;;;;;8.86;100.00;101206.13;6251370;28;20049;-79
2021/05/19 00:21:27;;;;;;;12.57;8.02;;;;;;;8.86;100.00;101204.38;6251619;28;20065;-79
2021/05/19 00:24:28;;;;;;;10.65;7.28;;;;;;;8.90;100.00;101207.69;6252190;28;20049;-80
2021/05/19 00:27:36;;;;;;;11.35;7.18;;;;;;;8.90;100.00;101212.94;6252100;28;20049;-79
2021/05/19 00:30:38;;;;;;;12.25;7.60;;;;;;;8.88;100.00;101215.63;6251736;28;20052;-79
2021/05/19 00:33:39;;;;;;;12.35;7.40;;;;;;;8.83;100.00;101207.09;6251869;28;20050;-79
2021/05/19 00:36:41;;;;;;;12.43;7.93;;;;;;;8.82;100.00;101204.53;6251753;28;20057;-77
2021/05/19 00:39:42;;;;;;;10.80;7.95;;;;;;;8.86;100.00;101203.50;6251616;28;20045;-79
2021/05/19 00:42:43;;;;;;;9.98;7.40;;;;;;;8.85;100.00;101210.50;6251297;28;20053;-80
2021/05/19 00:45:45;;;;;;;11.50;7.38;;;;;;;8.81;100.00;101208.94;6251559;28;20053;-79
2021/05/19 00:48:46;;;;;;;9.68;6.90;;;;;;;8.95;100.00;101216.25;6251553;28;20049;-79
2021/05/19 00:51:47;;;;;;;10.60;7.43;;;;;;;8.81;100.00;101214.19;6251124;28;20041;-78
2021/05/19 00:54:48;;;;;;;12.52;7.43;;;;;;;8.74;100.00;101215.31;6251313;28;20052;-79
2021/05/19 00:57:51;;;;;;;10.93;7.05;;;;;;;8.77;100.00;101209.97;6251107;28;20053;-80
2021/05/19 01:00:52;;;;;;;10.80;7.10;;;;;;;8.78;100.00;101208.19;6251195;28;20052;-79
2021/05/19 01:03:53;;;;;;;8.70;6.60;;;;;;;8.91;100.00;101213.81;6250708;28;20050;-77
2021/05/19 01:06:58;;;;;;;10.95;7.60;;;;;;;8.82;100.00;101207.16;6250613;28;20046;-79
2021/05/19 01:09:58;;;;;;;14.80;9.27;;;;;;;8.68;100.00;101207.69;6250333;28;20119;-79
2021/05/19 01:12:59;;;;;;;9.93;6.75;;;;;;;8.77;100.00;101209.13;6250913;28;20049;-79
2021/05/19 01:16:01;;;;;;;11.25;8.13;;;;;;;8.66;100.00;101203.41;6251023;28;20412;-79
2021/05/19 01:19:02;;;;;;;11.45;7.50;;;;;;;8.69;100.00;101205.94;6250464;28;20045;-79
2021/05/19 01:22:07;;;;;;;12.18;7.88;;;;;;;8.74;100.00;101203.97;6250280;28;20056;-79
2021/05/19 01:25:09;;;;;;;11.02;7.78;;;;;;;8.76;100.00;101218.72;6250727;28;20045;-79
2021/05/19 01:28:10;;;;;;;14.13;8.48;;;;;;;8.67;100.00;101216.44;6249588;28;20393;-79
2021/05/19 01:31:12;;;;;;;10.88;8.18;;;;;;;8.69;100.00;101221.66;6250263;28;20081;-78
2021/05/19 01:34:13;;;;;;;12.85;8.32;;;;;;;8.73;100.00;101220.63;6250540;28;20136;-79
2021/05/19 01:37:16;;;;;;;13.73;9.00;;;;;;;8.78;100.00;101222.16;6250515;28;20057;-79
2021/05/19 01:40:18;;;;;;;13.27;8.20;;;;;;;8.82;100.00;101218.50;6249695;28;20492;-79
2021/05/19 01:43:28;;;;;;;12.52;9.18;;;;;;;8.72;100.00;101214.53;6250178;28;20041;-80
2021/05/19 01:46:29;;;;;;;13.23;8.90;;;;;;;8.74;100.00;101214.47;6250235;28;20053;-78
2021/05/19 01:49:31;;;;;;;10.15;7.85;;;;;;;8.76;100.00;101207.38;6249904;28;20103;-79
2021/05/19 01:52:33;;;;;;;13.10;8.75;;;;;;;8.77;100.00;101209.97;6249755;28;20050;-79
2021/05/19 01:55:34;;;;;;;13.98;9.35;;;;;;;8.72;100.00;101214.53;6250017;28;20046;-79
2021/05/19 01:58:35;;;;;;;14.82;9.30;;;;;;;8.72;100.00;101217.16;6249880;28;20427;-79
2021/05/19 02:01:36;;;;;;;11.65;9.20;;;;;;;8.73;100.00;101213.63;6249726;28;20179;-79
2021/05/19 02:04:40;;;;;;;12.80;8.98;;;;;;;8.87;100.00;101215.69;6249524;28;20045;-78
2021/05/19 02:07:41;;;;;;;13.25;9.90;;;;;;;8.78;100.00;101214.28;6249606;28;20053;-79
2021/05/19 02:10:43;;;;;;;16.45;10.18;;;;;;;8.73;100.00;101221.47;6249428;28;20496;-78
2021/05/19 02:13:43;;;;;;;14.07;10.30;;;;;;;8.74;100.00;101222.31;6249633;28;20049;-79
2021/05/19 02:16:45;;;;;;;14.70;9.98;;;;;;;8.85;100.00;101220.13;6249198;28;20056;-79
2021/05/19 02:19:46;;;;;;;13.75;9.85;;;;;;;8.77;100.00;101228.31;6249381;28;20056;-77
2021/05/19 02:22:48;;;;;;;14.70;10.23;;;;;;;8.70;100.00;101228.59;6248717;28;20045;-79
2021/05/19 02:25:49;;;;;;;17.30;11.27;;;;;;;8.70;100.00;101226.81;6249366;28;20057;-79
2021/05/19 02:28:50;;;;;;;17.02;12.52;;;;;;;8.75;100.00;101224.03;6249187;28;20045;-79
2021/05/19 02:31:51;;;;;;;16.90;11.93;;;;;;;8.75;100.00;101222.25;6248465;28;20045;-80
2021/05/19 02:34:51;;;;;;;17.33;11.32;;;;;;;8.78;100.00;101224.75;6249313;28;20052;-79
2021/05/19 02:37:53;;;;;;;21.38;11.80;;;;;;;8.76;100.00;101216.09;6249046;28;20056;-79
2021/05/19 02:40:55;;;;;;;18.10;12.27;;;;;;;8.75;100.00;101221.41;6247979;28;20049;-79
2021/05/19 02:43:56;;;;;;;20.33;13.40;;;;;;;8.75;100.00;101221.41;6248797;28;20050;-79
2021/05/19 02:46:57;;;;;;;22.45;14.57;;;;;;;8.76;100.00;101223.94;6248654;28;20419;-79
2021/05/19 02:49:58;;;;;;;21.13;14.45;;;;;;;8.77;100.00;101225.69;6249046;28;20045;-79
2021/05/19 02:53:00;;;;;;;26.90;15.07;;;;;;;8.79;100.00;101228.25;6248117;28;20053;-80
2021/05/19 02:56:03;;;;;;;25.85;16.00;;;;;;;8.77;100.00;101224.84;6249226;28;20084;-79
2021/05/19 02:59:04;;;;;;;19.35;12.98;;;;;;;8.74;100.00;101231.03;6248783;28;20053;-79
2021/05/19 03:02:05;;;;;;;22.83;14.15;;;;;;;8.71;100.00;101235.53;6248197;28;20055;-79
2021/05/19 03:05:07;;;;;;;21.20;14.73;;;;;;;8.69;100.00;101235.59;6248354;28;20099;-79
2021/05/19 03:08:09;;;;;;;23.50;14.75;;;;;;;8.70;100.00;101233.81;6248427;28;20053;-79
2021/05/19 03:11:10;;;;;;;23.92;15.40;;;;;;;8.69;100.00;101240.84;6248003;28;20053;-79
2021/05/19 03:14:12;;;;;;;24.90;16.42;;;;;;;8.72;100.00;101237.22;6248296;28;20538;-79
2021/05/19 03:17:13;;;;;;;22.90;15.77;;;;;;;8.74;100.00;101238.03;6248116;28;20046;-79
2021/05/19 03:20:15;;;;;;;25.55;16.13;;;;;;;8.72;100.00;101234.59;6247892;28;20053;-80
2021/05/19 03:23:17;;;;;;;21.75;14.75;;;;;;;8.68;100.00;101235.66;6247674;28;20060;-79
2021/05/19 03:26:19;;;;;;;27.27;16.42;;;;;;;8.61;100.00;101241.13;6248011;28;20049;-79
2021/05/19 03:29:20;;;;;;;22.73;15.57;;;;;;;8.59;100.00;101245.56;6247593;28;20419;-79
2021/05/19 03:32:21;;;;;;;25.63;16.70;;;;;;;8.57;100.00;101246.53;6247294;28;20059;-80
2021/05/19 03:35:22;;;;;;;26.27;16.50;;;;;;;8.54;100.00;101247.50;6247528;28;20045;-79
2021/05/19 03:38:24;;;;;;;22.13;15.27;;;;;;;8.52;100.00;101251.94;6247766;28;20045;-80
2021/05/19 03:41:25;;;;;;;23.05;15.60;;;;;;;8.46;100.00;101251.31;6247621;28;20053;-79
2021/05/19 03:44:25;;;;;;;21.75;14.93;;;;;;;8.43;100.00;101254.03;6247871;28;20049;-78
2021/05/19 03:47:26;;;;;;;24.40;15.98;;;;;;;8.41;100.00;101254.09;6247424;28;20133;-77
2021/05/19 03:50:29;;;;;;;27.05;17.50;;;;;;;8.43;100.00;101257.50;6247514;28;20123;-78
2021/05/19 03:53:31;;;;;;;28.27;17.90;;;;;;;8.40;100.00;101255.00;6252153;28;20053;-77
2021/05/19 03:56:32;;;;;;;28.48;18.33;;;;;;;8.39;100.00;101258.53;6252848;28;20416;-78
2021/05/19 03:59:34;;;;;;;34.05;20.75;;;;;;;8.35;100.00;101251.66;6252713;28;20119;-77
2021/05/19 04:02:35;;;;;;;35.83;21.67;;;;;;;8.38;100.00;101256.81;6252590;28;20045;-78
2021/05/19 04:05:36;;;;;;;40.63;22.83;;;;;;;8.39;100.00;101259.38;6253178;28;20050;-77
2021/05/19 04:08:41;;;;;;;42.40;24.55;;;;;;;8.39;100.00;101269.00;6252442;28;20057;-77
2021/05/19 04:11:43;;;;;;;46.83;26.73;;;;;;;8.37;100.00;101261.22;6251878;28;20071;-77
2021/05/19 04:14:51;;;;;;;48.80;26.20;;;;;;;8.36;100.00;101269.09;6252534;28;20060;-77
2021/05/19 04:18:15;;;;;;;48.13;25.27;;;;;;;8.34;100.00;101270.91;6252347;28;20057;-77
2021/05/19 04:21:35;;;;;;;46.30;25.75;;;;;;;8.24;100.00;101274.75;6251964;28;20050;-77
2021/05/19 04:25:08;;;;;;;124.18;25.35;;;;;;;8.21;100.00;101280.09;6251701;28;20451;-77
2021/05/19 04:28:09;;;;;;;57.45;23.35;;;;;;;8.07;100.00;101276.19;6252210;28;20050;-77
2021/05/19 04:31:43;;;;;;;65.50;25.92;;;;;;;8.10;100.00;101283.94;6258050;28;20044;-78
2021/05/19 04:34:44;;;;;;;56.22;25.67;;;;;;;8.06;100.00;101286.72;6252086;28;20053;-78
2021/05/19 04:37:45;;;;;;;54.05;27.98;;;;;;;8.11;100.00;101295.28;6252131;28;20050;-79
2021/05/19 04:40:46;;;;;;;80.30;27.80;;;;;;;8.10;100.00;101286.56;6251900;28;20132;-77
2021/05/19 04:43:47;;;;;;;50.45;26.17;;;;;;;8.17;100.00;101291.56;6251848;28;20180;-77
2021/05/19 04:46:48;;;;;;;51.72;27.67;;;;;;;8.04;100.00;101294.63;6251582;28;20574;-77
2021/05/19 04:49:49;;;;;;;63.50;26.17;;;;;;;8.11;100.00;101293.50;6251623;28;20544;-78
2021/05/19 04:52:50;;;;;;;67.20;27.75;;;;;;;8.02;100.00;101295.59;6250968;28;20467;-78
2021/05/19 04:55:52;;;;;;;66.38;28.73;;;;;;;8.03;100.00;101298.13;6251478;28;20057;-79
2021/05/19 04:58:53;;;;;;;49.03;26.98;;;;;;;8.09;100.00;101299.72;6251416;28;20045;-77
2021/05/19 05:01:54;;;;;;;76.97;28.63;;;;;;;8.06;100.00;101312.91;6251002;28;20589;-77
2021/05/19 05:04:55;;;;;;;55.85;29.88;;;;;;;8.09;100.00;101311.03;6250037;28;20045;-78
2021/05/19 05:08:13;;;;;;;66.95;32.35;;;;;;;8.28;100.00;101311.25;6250661;28;20052;-77
2021/05/19 05:11:15;;;;;;;67.22;31.77;;;;;;;8.14;100.00;101321.34;6250994;28;20049;-77
2021/05/19 05:14:16;;;;;;;70.95;35.40;;;;;;;8.26;100.00;101322.69;6250809;28;20045;-77
2021/05/19 05:17:17;;;;;;;78.90;36.13;;;;;;;8.36;100.00;101326.72;6251125;28;20088;-77
2021/05/19 05:20:18;;;;;;;89.32;36.95;;;;;;;8.45;100.00;101313.31;6250646;28;20047;-78
2021/05/19 05:23:19;;;;;;;82.03;36.78;;;;;;;8.51;100.00;101322.72;6250568;28;20060;-77
2021/05/19 05:26:21;;;;;;;87.00;38.13;;;;;;;8.56;100.00;101326.88;6250815;28;20053;-78
2021/05/19 05:29:22;;;;;;;76.53;34.67;;;;;;;8.76;100.00;101322.69;6250622;28;20049;-79
2021/05/19 05:32:23;;;;;;;72.30;34.08;;;;;;;8.53;100.00;101329.59;6250258;28;20053;-77
2021/05/19 05:36:01;;;;;;;72.68;35.58;;;;;;;8.57;100.00;101328.59;6250588;28;20111;-79
2021/05/19 05:39:03;;;;;;;67.33;32.40;;;;;;;8.63;100.00;101336.25;6250494;28;20053;-77
2021/05/19 05:42:05;;;;;;;59.25;30.77;;;;;;;8.53;100.00;101336.59;6249886;28;20049;-78
2021/05/19 05:45:10;;;;;;;55.90;28.02;;;;;;;8.67;100.00;101341.34;6250054;28;20493;-77
2021/05/19 05:48:11;;;;;;;52.72;26.90;;;;;;;8.56;100.00;101342.59;6250142;28;20401;-77
2021/05/19 05:51:12;;;;;;;56.55;29.35;;;;;;;8.48;100.00;101343.78;6249861;28;20049;-77
2021/05/19 05:54:13;;;;;;;66.57;30.67;;;;;;;8.61;100.00;101347.69;6250111;28;20064;-77
2021/05/19 05:57:15;;;;;;;66.68;30.38;;;;;;;8.58;100.00;101342.53;6250156;28;20049;-78
2021/05/19 06:00:17;;;;;;;51.03;26.65;;;;;;;8.78;100.00;101355.78;6249834;28;20045;-77
2021/05/19 06:03:18;;;;;;;65.00;27.58;;;;;;;8.66;100.00;101355.38;6249720;28;20053;-77
2021/05/19 06:06:19;;;;;;;65.65;30.20;;;;;;;8.66;100.00;101353.59;6249329;28;20046;-77
2021/05/19 06:09:20;;;;;;;64.60;29.60;;;;;;;8.72;100.00;101358.66;6249732;28;20136;-76
2021/05/19 06:12:22;;;;;;;70.40;29.48;;;;;;;8.69;100.00;101357.91;6249374;28;20049;-77
2021/05/19 06:15:23;;;;;;;60.55;27.80;;;;;;;8.61;100.00;101352.91;6249102;28;20485;-77
2021/05/19 06:18:24;;;;;;;63.38;26.98;;;;;;;8.63;100.00;101351.13;6249042;28;20056;-77
2021/05/19 06:21:25;;;;;;;60.20;27.30;;;;;;;8.73;100.00;101347.25;6249161;28;20101;-76
2021/05/19 06:24:26;;;;;;;62.65;29.05;;;;;;;8.84;100.00;101354.72;6249086;28;20058;-77
2021/05/19 06:27:27;;;;;;;59.30;25.92;;;;;;;9.07;100.00;101351.25;6249222;28;20080;-77
2021/05/19 06:30:28;;;;;;;59.13;27.00;;;;;;;9.15;100.00;101357.06;6248913;28;20049;-77
2021/05/19 06:33:29;;;;;;;53.40;26.00;;;;;;;9.19;100.00;101357.81;6248324;28;20053;-79
2021/05/19 06:36:30;;;;;;;56.10;26.45;;;;;;;9.09;100.00;101349.44;6248056;28;20508;-77
2021/05/19 06:39:31;;;;;;;60.85;27.75;;;;;;;9.06;100.00;101357.41;6248697;28;20182;-77
2021/05/19 06:42:33;;;;;;;58.97;26.95;;;;;;;9.05;100.00;101358.31;6248544;28;20049;-77
2021/05/19 06:45:35;;;;;;;55.63;25.73;;;;;;;9.12;100.00;101362.41;6248360;28;20057;-77
2021/05/19 06:48:35;;;;;;;52.17;25.20;;;;;;;9.29;100.00;101357.38;6248111;28;20142;-77
2021/05/19 06:51:37;;;;;;;51.65;25.30;;;;;;;9.39;100.00;101361.34;6248325;28;20041;-76
2021/05/19 06:54:38;;;;;;;51.20;24.50;;;;;;;9.52;100.00;101355.66;6248069;28;20420;-79
2021/05/19 06:57:40;;;;;;;54.08;25.10;;;;;;;9.49;100.00;101350.50;6248379;28;20052;-79
2021/05/19 07:00:40;;;;;;;47.85;21.90;;;;;;;9.63;100.00;101362.19;6247825;28;20041;-77
2021/05/19 07:03:41;;;;;;;43.65;21.02;;;;;;;9.72;100.00;101353.09;6248191;28;20060;-77
2021/05/19 07:06:42;;;;;;;42.00;20.75;;;;;;;9.76;100.00;101349.41;6247937;28;20056;-78
2021/05/19 07:09:43;;;;;;;42.50;20.70;;;;;;;9.80;100.00;101358.88;6248122;28;20092;-77
2021/05/19 07:12:45;;;;;;;39.67;20.80;;;;;;;9.94;100.00;101349.59;6248023;28;20053;-79
2021/05/19 07:15:51;;;;;;;35.50;20.25;;;;;;;10.12;100.00;101354.06;6247709;28;20053;-77
2021/05/19 07:18:55;;;;;;;29.80;17.50;;;;;;;10.10;100.00;101354.16;6247919;28;20665;-77
2021/05/19 07:21:56;;;;;;;31.55;16.85;;;;;;;10.26;100.00;101357.00;6247606;28;20050;-76
2021/05/19 07:24:56;;;;;;;29.73;15.90;;;;;;;10.30;99.28;101357.75;6247443;28;20401;-77
2021/05/19 07:27:58;;;;;;;19.98;13.63;;;;;;;10.38;98.20;101353.88;6246963;28;20050;-77
2021/05/19 07:30:59;;;;;;;18.95;11.38;;;;;;;10.48;97.81;101356.94;6247228;28;20041;-79
2021/05/19 07:34:07;;;;;;;12.35;8.45;;;;;;;10.79;91.13;101361.72;6247444;28;20084;-76
2021/05/19 07:37:08;;;;;;;13.70;7.90;;;;;;;10.82;90.72;101358.97;6247634;28;20046;-78
2021/05/19 07:40:11;;;;;;;8.25;5.15;;;;;;;11.26;80.93;101352.59;6247046;28;20045;-75
2021/05/19 07:43:16;;;;;;;9.90;5.00;;;;;;;11.10;82.29;101363.84;6247324;28;20049;-75
2021/05/19 07:46:17;;;;;;;7.13;4.90;;;;;;;10.94;83.29;101362.81;6271657;28;20503;-78
2021/05/19 07:49:18;;;;;;;10.05;4.78;;;;;;;11.44;79.72;101351.72;6272227;28;20049;-80
2021/05/19 07:52:20;;;;;;;6.65;3.80;;;;;;;11.28;80.71;101356.88;6271647;28;20044;-79
2021/05/19 07:55:24;;;;;;;8.88;4.35;;;;;;;11.54;78.62;101346.91;6272301;28;20041;-79
2021/05/19 07:58:31;;;;;;;6.00;3.30;;;;;;;11.64;76.14;101354.28;6267201;28;20057;-80
2021/05/19 08:01:54;;;;;;;7.43;4.10;;;;;;;11.64;77.42;101345.53;6249851;28;20503;-80
2021/05/19 08:04:55;;;;;;;9.90;4.07;;;;;;;11.86;74.67;101342.75;6260031;28;20069;-77
2021/05/19 08:07:57;;;;;;;5.93;3.42;;;;;;;11.90;74.36;101346.94;6263615;28;20044;-79
2021/05/19 08:10:58;;;;;;;4.22;2.13;;;;;;;11.97;69.35;101347.47;6262709;28;20041;-80
2021/05/19 08:14:00;;;;;;;5.25;1.88;;;;;;;11.88;69.35;101344.38;6254963;28;20090;-79
2021/05/19 08:17:02;;;;;;;3.70;2.10;;;;;;;11.80;70.54;101356.16;6263951;28;20042;-79
2021/05/19 08:20:05;;;;;;;5.95;2.80;;;;;;;11.87;72.18;101352.34;6260427;28;20045;-81
2021/05/19 08:23:06;;;;;;;10.30;3.50;;;;;;;12.23;67.82;101354.94;6261608;28;20045;-79
2021/05/19 08:26:07;;;;;;;4.90;2.80;;;;;;;12.31;69.58;101354.53;6273503;28;20049;-81
2021/05/19 08:29:08;;;;;;;7.22;2.83;;;;;;;12.47;70.17;101355.47;6272290;28;20083;-80
2021/05/19 08:32:10;;;;;;;5.78;2.65;;;;;;;12.42;70.03;101355.69;6259816;28;20049;-79
2021/05/19 08:35:13;;;;;;;5.18;2.67;;;;;;;12.37;69.81;101352.44;6273510;28;20053;-80
2021/05/19 08:38:14;;;;;;;8.73;2.65;;;;;;;12.25;68.87;101355.69;6276282;28;20048;-78
2021/05/19 08:41:15;;;;;;;3.50;1.65;;;;;;;12.45;67.61;101354.72;6277712;28;20488;-77
2021/05/19 08:44:17;;;;;;;3.78;2.03;;;;;;;12.43;69.43;101346.84;6277887;28;20060;-78
2021/05/19 08:47:22;;;;;;;3.33;1.88;;;;;;;12.62;69.92;101338.00;6277437;28;20091;-77
2021/05/19 08:50:25;;;;;;;3.38;1.52;;;;;;;12.46;69.00;101348.50;6275028;28;20492;-77
2021/05/19 08:53:27;;;;;;;4.65;1.88;;;;;;;12.68;69.65;101346.44;6275208;28;20053;-76
2021/05/19 08:56:28;;;;;;;7.88;2.55;;;;;;;12.59;69.05;101348.72;6275465;28;20049;-78
2021/05/19 08:59:29;;;;;;;4.55;2.08;;;;;;;12.37;70.24;101354.25;6275602;28;20049;-78
2021/05/19 09:02:30;;;;;;;5.78;2.10;;;;;;;12.39;70.01;101352.38;6276163;28;20048;-77
2021/05/19 09:05:31;;;;;;;4.20;2.00;;;;;;;12.27;70.60;101347.75;6276641;28;20624;-82
2021/05/19 09:08:36;;;;;;;7.20;2.42;;;;;;;12.13;71.05;101354.56;6277766;28;20057;-76
2021/05/19 09:11:54;;;;;;;6.97;2.15;;;;;;;12.29;69.52;101357.25;6275042;28;20049;-77
2021/05/19 09:15:02;;;;;;;6.13;2.50;;;;;;;12.62;68.65;101353.81;6274079;28;20147;-79
2021/05/19 09:18:03;;;;;;;7.10;2.25;;;;;;;12.54;70.64;101351.59;6275521;28;20092;-79
2021/05/19 09:21:04;;;;;;;7.53;2.83;;;;;;;12.58;69.79;101339.97;6274585;28;20060;-77
2021/05/19 09:24:10;;;;;;;5.40;3.15;;;;;;;12.76;70.07;101355.72;6274734;28;20053;-78
2021/05/19 09:27:10;;;;;;;5.45;2.60;;;;;;;12.56;69.77;101349.72;6275109;28;20049;-77
2021/05/19 09:30:14;;;;;;;3.33;2.05;;;;;;;12.51;70.04;101353.53;6274328;28;20463;-77
2021/05/19 09:33:17;;;;;;;3.72;2.17;;;;;;;12.71;68.85;101345.41;6275025;28;20049;-77
2021/05/19 09:36:20;;;;;;;4.60;2.55;;;;;;;12.78;67.42;101351.25;6294931;23;20118;-82
2021/05/19 09:39:21;;;;;;;4.53;2.60;;;;;;;12.82;68.81;101342.22;6275633;28;20048;-82
2021/05/19 09:42:23;;;;;;;8.38;3.40;;;;;;;13.29;66.00;101344.09;6270246;28;20045;-82
2021/05/19 09:45:27;;;;;;;7.55;2.70;;;;;;;12.97;68.97;101341.41;6270348;28;20126;-82
2021/05/19 09:48:28;;;;;;;8.43;3.00;;;;;;;13.07;67.43;101339.13;6275147;28;20534;-84
2021/05/19 09:51:29;;;;;;;4.75;2.88;;;;;;;13.20;68.76;101343.63;6274305;28;20164;-83
2021/05/19 09:54:32;;;;;;;6.97;3.47;;;;;;;13.12;68.75;101335.28;6270799;28;20045;-83
2021/05/19 09:57:43;;;;;;;5.43;2.67;;;;;;;13.05;69.59;101335.72;6258801;28;20049;-81
2021/05/19 10:00:45;;;;;;;7.53;2.80;;;;;;;13.06;69.25;101340.91;6273169;28;20426;-83
2021/05/19 10:03:46;;;;;;;7.38;3.35;;;;;;;13.45;67.42;101337.06;6274788;28;20041;-84
2021/05/19 10:06:48;;;;;;;4.65;3.20;;;;;;;13.11;69.15;101333.59;6279395;28;20194;-83
2021/05/19 10:09:49;;;;;;;7.35;4.25;;;;;;;13.00;68.97;101332.47;6275651;28;20795;-82
2021/05/19 10:12:51;;;;;;;8.77;3.90;;;;;;;12.91;70.51;101325.91;6273318;28;20052;-81
2021/05/19 10:15:55;;;;;;;7.93;3.17;;;;;;;12.88;71.22;101333.97;6270989;28;20045;-81
2021/05/19 10:18:58;;;;;;;7.05;3.13;;;;;;;13.01;68.50;101329.75;6272901;28;20473;-81
2021/05/19 10:22:06;;;;;;;6.72;3.00;;;;;;;12.94;68.99;101331.88;6273487;28;20041;-83
2021/05/19 10:25:18;;;;;;;7.32;3.58;;;;;;;13.00;69.73;101337.75;6269725;28;20049;-84
2021/05/19 10:28:19;;;;;;;7.22;3.47;;;;;;;13.14;67.39;101325.50;6274408;28;20060;-84
2021/05/19 10:31:31;;;;;;;7.88;3.83;;;;;;;13.15;68.36;101331.63;6274175;28;20041;-83
2021/05/19 10:34:43;;;;;;;9.65;4.40;;;;;;;13.00;69.08;101325.41;6274890;28;20483;-83
2021/05/19 10:37:49;;;;;;;13.30;6.63;;;;;;;12.98;70.78;101329.06;6274069;28;20053;-84
2021/05/19 10:40:52;;;;;;;8.93;5.22;;;;;;;12.98;72.64;101310.59;6273927;28;20689;-83
2021/05/19 10:43:56;;;;;;;13.15;6.43;;;;;;;13.11;69.82;101316.91;6274048;28;20412;-83
2021/05/19 10:47:03;;;;;;;11.10;5.38;;;;;;;13.19;69.37;101309.44;6274260;28;20570;-76
2021/05/19 10:50:15;;;;;;;9.32;5.50;;;;;;;13.30;69.66;101320.25;6271388;28;20041;-76
2021/05/19 11:00:16;;;;;;;10.82;6.05;;;;;;;14.26;68.46;101311.22;6252237;28;20103;-86
2021/05/19 11:03:18;;;;;;;7.82;5.40;;;;;;;14.32;69.35;101296.78;6275202;28;20064;-84
2021/05/19 11:06:19;;;;;;;8.55;5.30;;;;;;;14.25;66.80;101306.84;6276888;28;20139;-85
2021/05/19 11:09:25;;;;;;;9.80;4.47;;;;;;;13.96;64.39;101303.31;6275805;28;20126;-86
2021/05/19 11:12:50;;;;;;;8.38;5.50;;;;;;;13.87;65.47;101299.41;6274237;28;20045;-84
2021/05/19 11:15:59;;;;;;;10.82;5.40;;;;;;;13.49;66.43;101301.63;6277582;28;20048;-83
2021/05/19 11:19:10;;;;;;;13.75;5.72;;;;;;;13.39;69.00;101311.81;6276959;28;20045;-84
2021/05/19 11:22:13;;;;;;;9.75;5.22;;;;;;;13.33;72.67;101311.34;6279008;28;20049;-88
2021/05/19 11:25:14;;;;;;;10.52;6.47;;;;;;;12.88;78.40;101313.72;6274710;28;20045;-84
2021/05/19 11:28:25;;;;;;;10.73;6.30;;;;;;;12.55;81.61;101307.63;6277479;28;20049;-85
2021/05/19 11:31:33;;;;;;;14.35;5.93;;;;;;;12.38;80.19;101303.22;6275615;28;20064;-85
2021/05/19 11:34:35;;;;;;;14.95;6.38;;;;;;;12.23;81.93;101307.50;6275768;28;20048;-84
2021/05/19 11:37:36;;;;;;;9.63;5.68;;;;;;;12.27;79.99;101298.50;6275334;28;20511;-85
2021/05/19 11:40:42;;;;;;;13.07;5.55;;;;;;;12.30;80.85;101298.34;6275409;28;20053;-83
2021/05/19 11:43:43;;;;;;;8.93;5.32;;;;;;;12.36;83.17;101289.28;6272969;28;20052;-84
2021/05/19 11:46:44;;;;;;;7.50;5.60;;;;;;;12.46;82.77;101289.66;6272919;28;20053;-82
2021/05/19 11:49:46;;;;;;;8.57;5.30;;;;;;;12.76;86.74;101288.00;6273428;28;20055;-84
2021/05/19 11:52:50;;;;;;;12.45;6.05;;;;;;;12.99;86.89;101288.53;6273506;28;20049;-84
2021/05/19 11:55:52;;;;;;;9.73;4.78;;;;;;;13.05;80.68;101282.94;6274142;28;20060;-83
2021/05/19 11:58:53;;;;;;;7.90;4.07;;;;;;;13.06;72.98;101277.56;6275600;28;20408;-84
2021/05/19 12:01:56;;;;;;;7.18;4.43;;;;;;;13.01;76.56;101271.72;6274513;28;20187;-85
2021/05/19 12:05:06;;;;;;;12.25;5.03;;;;;;;12.93;76.91;101273.91;6274509;28;20516;-83
2021/05/19 12:08:07;;;;;;;8.57;4.88;;;;;;;12.90;75.26;101274.09;6278224;28;20073;-86
2021/05/19 12:11:18;;;;;;;6.15;3.67;;;;;;;12.98;74.82;101268.38;6273701;28;20051;-85
2021/05/19 12:14:19;;;;;;;8.77;4.07;;;;;;;13.03;75.67;101272.47;6282515;28;20575;-83
2021/05/19 12:18:02;;;;;;;8.55;4.45;;;;;;;13.22;76.32;101267.06;6279647;28;20052;-85
2021/05/19 12:21:08;;;;;;;10.57;4.28;;;;;;;13.39;72.97;101256.38;6279849;28;20496;-83
2021/05/19 12:24:27;;;;;;;10.80;4.13;;;;;;;13.51;74.36;101260.13;6279256;28;20056;-83
2021/05/19 12:27:28;;;;;;;;;;;;;;;13.55;72.83;101255.53;6279956;28;20048;-84
2021/05/19 12:30:30;;;;;;;3.85;2.92;;;;;;;13.61;71.93;101266.56;6279902;28;19921;-84
2021/05/19 12:33:37;;;;;;;6.13;2.10;;;;;;;13.69;66.95;101264.34;6278111;28;20057;-83
2021/05/19 12:36:41;;;;;;;5.13;2.45;;;;;;;13.67;69.34;101265.34;6278325;28;20064;-84
2021/05/19 12:39:44;;;;;;;7.47;2.20;;;;;;;13.66;65.90;101256.59;6279273;28;20053;-83
2021/05/19 12:42:46;;;;;;;7.13;3.10;;;;;;;13.64;65.92;101265.56;6278953;28;20102;-83
2021/05/19 12:46:10;;;;;;;8.43;3.08;;;;;;;13.70;67.46;101260.75;6278411;28;20057;-84
2021/05/19 12:49:13;;;;;;;7.85;3.65;;;;;;;13.62;69.99;101262.13;6278492;28;20053;-84
2021/05/19 12:52:18;;;;;;;9.70;3.63;;;;;;;13.52;68.93;101264.47;6277502;28;20075;-85
2021/05/19 12:55:37;;;;;;;6.72;3.10;;;;;;;13.63;71.59;101261.22;6278307;28;20053;-84
2021/05/19 12:58:49;;;;;;;5.20;3.20;;;;;;;13.61;68.46;101257.81;6279436;28;20148;-85
2021/05/19 13:01:57;;;;;;;11.32;4.25;;;;;;;13.53;71.22;101252.94;6281978;28;20056;-85
2021/05/19 13:04:59;;;;;;;4.75;3.00;;;;;;;13.53;74.32;101254.75;6278634;28;20120;-85
2021/05/19 13:08:01;;;;;;;5.00;2.92;;;;;;;13.56;72.44;101259.88;6277865;28;20049;-85
2021/05/19 13:11:06;;;;;;;5.88;2.85;;;;;;;13.52;73.91;101263.63;6277441;28;20102;-86
2021/05/19 13:14:08;;;;;;;13.23;3.78;;;;;;;13.58;74.55;101272.06;6284805;28;20124;-83
2021/05/19 13:17:24;;;;;;;11.73;4.40;;;;;;;12.85;80.91;101269.06;6280768;28;20179;-83
2021/05/19 13:20:27;;;;;;;14.30;6.63;;;;;;;11.37;92.82;101274.88;6276539;28;20103;-81
2021/05/19 13:23:48;;;;;;;13.52;6.93;;;;;;;10.68;100.00;101286.91;6275073;28;20054;-78
2021/05/19 13:27:09;;;;;;;12.45;8.18;;;;;;;10.60;100.00;101274.09;6275027;28;20049;-78
2021/05/19 13:30:12;;;;;;;19.67;10.93;;;;;;;10.71;100.00;101271.81;6277021;28;20084;-79
2021/05/19 13:33:24;;;;;;;32.10;13.50;;;;;;;11.01;100.00;101272.19;6275882;28;20045;-81
2021/05/19 13:39:46;;;;;;;23.38;12.57;;;;;;;11.10;100.00;101273.56;6276684;28;20104;-79
2021/05/19 13:42:47;;;;;;;21.00;11.90;;;;;;;11.01;100.00;101274.84;6274890;28;20056;-79
2021/05/19 13:45:48;;;;;;;17.65;10.25;;;;;;;10.80;100.00;101273.19;6275870;28;20138;-80
2021/05/19 13:48:49;;;;;;;30.23;8.85;;;;;;;10.64;100.00;101275.66;6277899;28;20131;-79
2021/05/19 13:51:52;;;;;;;22.98;11.50;;;;;;;10.62;100.00;101275.72;6272482;28;20396;-80
2021/05/19 13:54:54;;;;;;;18.65;10.52;;;;;;;10.69;100.00;101268.44;6264927;28;20377;-80
2021/05/19 13:57:56;;;;;;;29.98;11.57;;;;;;;10.83;100.00;101276.53;6274605;28;20049;-81
2021/05/19 14:00:57;;;;;;;23.30;11.95;;;;;;;11.04;100.00;101281.75;6275648;28;20632;-80
2021/05/19 14:03:58;;;;;;;19.85;13.05;;;;;;;11.23;100.00;101279.94;6275324;28;20049;-80
2021/05/19 14:06:59;;;;;;;29.70;14.30;;;;;;;11.63;100.00;101281.50;6267344;28;20045;-79
2021/05/19 14:10:01;;;;;;;17.55;10.80;;;;;;;11.92;100.00;101284.50;6275566;28;20053;-79
2021/05/19 14:13:06;;;;;;;12.38;9.23;;;;;;;12.27;100.00;101282.69;6274483;28;20049;-81